Terminal Aerodrome Forecast
Issued by NWS El Paso, TX

Home | Current Version | Previous Version | Text Only | Print | Product List | Glossary On
Versions: 1 2 3 4 5 6 7 8 9 10 11 12 13 14
000
FTUS44 KEPZ 230537
TAFELP
TAF
KELP 230537Z 2306/2406 31012KT P6SM FEW120 BKN250
     FM232000 25008KT P6SM SCT120 SCT250
     FM240000 04012G20KT P6SM FEW110 FEW150 SCT250=

USA.gov is the U.S. government's official web portal to all federal, state and local government web resources and services.